createdAt,value
2023-02-15T00:00:11.604Z,196.10
2023-02-15T00:02:39.751Z,209.00
2023-02-15T00:05:08.056Z,197.00
2023-02-15T00:07:35.208Z,194.63
2023-02-15T00:10:02.662Z,197.80
2023-02-15T00:12:30.151Z,194.50
2023-02-15T00:14:57.550Z,192.37
2023-02-15T00:17:24.717Z,190.03
2023-02-15T00:19:52.110Z,203.10
2023-02-15T00:22:19.744Z,200.27
2023-02-15T00:24:47.188Z,190.67
2023-02-15T00:27:14.661Z,190.70
2023-02-15T00:29:42.127Z,202.37
2023-02-15T00:32:09.157Z,198.73
2023-02-15T00:34:36.624Z,204.97
2023-02-15T00:37:04.137Z,207.17
2023-02-15T00:39:31.209Z,214.83
2023-02-15T00:41:59.760Z,205.90
2023-02-15T00:44:27.283Z,209.87
2023-02-15T00:46:57.534Z,218.90
2023-02-15T00:49:24.691Z,231.10
2023-02-15T00:51:52.142Z,209.03
2023-02-15T00:54:19.446Z,200.63
2023-02-15T00:56:46.922Z,204.57
2023-02-15T00:59:14.369Z,193.37
2023-02-15T01:01:41.910Z,195.03
2023-02-15T01:04:09.422Z,196.53
2023-02-15T01:06:37.200Z,199.67
2023-02-15T01:09:04.502Z,186.30
2023-02-15T01:11:31.918Z,190.77
2023-02-15T01:13:59.778Z,193.60
2023-02-15T01:16:29.696Z,201.33
2023-02-15T01:18:57.687Z,185.60
2023-02-15T01:21:27.115Z,187.17
2023-02-15T01:23:54.725Z,189.77
2023-02-15T01:26:21.847Z,197.90
2023-02-15T01:28:49.216Z,189.43
2023-02-15T01:31:21.053Z,185.43
2023-02-15T01:33:49.016Z,182.80
2023-02-15T01:36:18.342Z,183.33
2023-02-15T01:38:45.804Z,199.67
2023-02-15T01:41:24.341Z,186.97
2023-02-15T01:43:55.301Z,196.87
2023-02-15T01:46:47.156Z,189.87
2023-02-15T01:49:20.728Z,193.20
2023-02-15T01:51:50.205Z,192.20
2023-02-15T01:54:34.974Z,187.07
2023-02-15T01:57:10.890Z,187.30
2023-02-15T01:59:41.109Z,196.23
2023-02-15T02:02:10.887Z,186.60
2023-02-15T02:04:52.592Z,194.30
2023-02-15T02:07:25.350Z,197.10
2023-02-15T02:09:52.784Z,196.50
2023-02-15T02:12:26.242Z,199.20
2023-02-15T02:14:54.971Z,192.20
2023-02-15T02:17:45.248Z,192.13
2023-02-15T02:20:18.143Z,189.80
2023-02-15T02:23:12.067Z,191.27
2023-02-15T02:26:22.581Z,197.17
2023-02-15T02:29:08.529Z,200.23
2023-02-15T02:32:05.496Z,233.23
2023-02-15T02:34:47.131Z,224.17
2023-02-15T02:37:24.180Z,225.20
2023-02-15T02:40:28.951Z,211.53
2023-02-15T02:43:37.015Z,194.47
2023-02-15T02:46:21.563Z,205.93
2023-02-15T02:48:50.425Z,185.60
2023-02-15T02:51:22.402Z,206.57
2023-02-15T02:53:57.836Z,191.20
2023-02-15T02:56:47.392Z,193.03
2023-02-15T02:59:26.735Z,196.73
2023-02-15T03:02:05.805Z,191.17
2023-02-15T03:04:38.077Z,194.47
2023-02-15T03:07:13.752Z,199.93
2023-02-15T03:09:46.974Z,201.70
2023-02-15T03:12:22.329Z,202.13
2023-02-15T03:15:04.106Z,190.63
2023-02-15T03:17:37.715Z,191.70
2023-02-15T03:20:15.366Z,192.90
2023-02-15T03:23:14.986Z,211.77
2023-02-15T03:25:47.951Z,194.00
2023-02-15T03:28:26.302Z,197.63
2023-02-15T03:30:57.240Z,183.53
2023-02-15T03:33:27.675Z,184.87
2023-02-15T03:36:20.073Z,185.73
2023-02-15T03:39:09.077Z,187.60
2023-02-15T03:42:09.292Z,193.53
2023-02-15T03:45:00.176Z,194.70
2023-02-15T03:47:35.808Z,190.53
2023-02-15T03:50:39.984Z,185.63
2023-02-15T03:53:10.951Z,185.27
2023-02-15T03:55:38.562Z,193.20
2023-02-15T03:58:24.427Z,184.47
2023-02-15T04:01:22.563Z,181.87
2023-02-15T04:03:52.288Z,189.97
2023-02-15T04:06:19.785Z,183.27
2023-02-15T04:09:05.676Z,182.00
2023-02-15T04:11:33.095Z,189.50
2023-02-15T04:14:20.451Z,182.27
2023-02-15T04:16:47.565Z,171.40
2023-02-15T04:19:32.892Z,178.67
2023-02-15T04:22:18.709Z,177.93
2023-02-15T04:25:04.023Z,173.83
2023-02-15T04:27:31.422Z,167.07
2023-02-15T04:29:58.499Z,170.37
2023-02-15T04:32:25.984Z,174.07
2023-02-15T04:34:53.406Z,170.87
2023-02-15T04:37:20.520Z,168.17
2023-02-15T04:39:47.652Z,169.17
2023-02-15T04:42:15.074Z,172.60
2023-02-15T04:44:42.788Z,180.67
2023-02-15T04:47:09.862Z,168.73
2023-02-15T04:49:36.914Z,174.77
2023-02-15T04:52:04.126Z,169.20
2023-02-15T04:54:31.149Z,170.70
2023-02-15T04:56:58.592Z,176.30
2023-02-15T04:59:26.007Z,175.13
2023-02-15T05:01:53.526Z,173.67
2023-02-15T05:04:20.969Z,171.97
2023-02-15T05:06:48.487Z,178.37
2023-02-15T05:09:16.189Z,172.93
2023-02-15T05:11:44.073Z,167.37
2023-02-15T05:14:11.551Z,174.30
2023-02-15T05:16:40.450Z,176.80
2023-02-15T05:19:08.084Z,166.40
2023-02-15T05:21:35.591Z,174.17
2023-02-15T05:24:23.028Z,172.83
2023-02-15T05:27:12.233Z,179.87
2023-02-15T05:29:39.712Z,175.60
2023-02-15T05:32:06.946Z,173.23
2023-02-15T05:34:34.414Z,171.07
2023-02-15T05:37:01.871Z,179.57
2023-02-15T05:39:29.293Z,171.40
2023-02-15T05:41:59.213Z,172.53
2023-02-15T05:44:26.730Z,170.23
2023-02-15T05:46:54.224Z,167.97
2023-02-15T05:49:21.432Z,180.97
2023-02-15T05:51:48.837Z,176.37
2023-02-15T05:54:15.884Z,191.53
2023-02-15T05:56:43.294Z,220.53
2023-02-15T05:59:10.975Z,196.17
2023-02-15T06:01:38.406Z,189.17
2023-02-15T06:04:05.486Z,180.13
2023-02-15T06:06:32.989Z,178.13
2023-02-15T06:09:00.004Z,176.93
2023-02-15T06:11:27.463Z,183.73
2023-02-15T06:13:54.515Z,171.13
2023-02-15T06:16:22.112Z,173.07
2023-02-15T06:18:49.539Z,166.07
2023-02-15T06:21:17.162Z,176.80
2023-02-15T06:23:44.570Z,173.80
2023-02-15T06:26:12.052Z,175.10
2023-02-15T06:28:39.109Z,173.93
2023-02-15T06:31:06.596Z,177.97
2023-02-15T06:33:35.009Z,164.80
2023-02-15T06:36:02.919Z,172.80
2023-02-15T06:38:30.703Z,186.33
2023-02-15T06:40:58.272Z,171.53
2023-02-15T06:43:25.694Z,173.80
2023-02-15T06:45:52.741Z,169.20
2023-02-15T06:48:20.190Z,169.83
2023-02-15T06:50:47.228Z,172.27
2023-02-15T06:53:14.658Z,180.33
2023-02-15T06:55:42.091Z,180.47
2023-02-15T06:58:09.598Z,175.13
2023-02-15T07:00:36.742Z,172.47
2023-02-15T07:03:04.272Z,171.20
2023-02-15T07:05:35.486Z,168.00
2023-02-15T07:08:02.834Z,195.33
2023-02-15T07:10:30.226Z,188.63
2023-02-15T07:12:57.741Z,197.07
2023-02-15T07:15:25.422Z,179.67
2023-02-15T07:17:52.646Z,185.80
2023-02-15T07:20:24.754Z,212.37
2023-02-15T07:22:52.382Z,198.50
2023-02-15T07:25:19.646Z,176.87
2023-02-15T07:27:47.356Z,194.23
2023-02-15T07:30:17.678Z,196.40
2023-02-15T07:33:05.545Z,184.27
2023-02-15T07:35:33.856Z,173.47
2023-02-15T07:38:01.933Z,174.80
2023-02-15T07:40:29.363Z,182.10
2023-02-15T07:43:00.216Z,176.43
2023-02-15T07:45:28.105Z,176.30
2023-02-15T07:47:55.692Z,169.10
2023-02-15T07:50:23.579Z,191.07
2023-02-15T07:52:51.058Z,181.70
2023-02-15T07:55:19.565Z,168.57
2023-02-15T07:57:48.614Z,163.23
2023-02-15T08:00:21.161Z,160.53
2023-02-15T08:03:14.887Z,161.93
2023-02-15T08:05:44.235Z,165.20
2023-02-15T08:08:30.849Z,166.37
2023-02-15T08:11:26.580Z,173.43
2023-02-15T08:14:00.524Z,174.10
2023-02-15T08:16:29.245Z,173.23
2023-02-15T08:18:58.482Z,171.83
2023-02-15T08:21:28.945Z,164.40
2023-02-15T08:23:57.738Z,164.60
2023-02-15T08:26:25.870Z,167.70
2023-02-15T08:28:53.689Z,173.87
2023-02-15T08:31:21.467Z,161.80
2023-02-15T08:33:51.173Z,163.43
2023-02-15T08:36:25.701Z,162.07
2023-02-15T08:38:52.884Z,164.10
2023-02-15T08:41:32.504Z,166.63
2023-02-15T08:44:03.663Z,169.37
2023-02-15T08:46:35.620Z,177.13
2023-02-15T08:49:03.651Z,173.40
2023-02-15T08:51:34.787Z,171.57
2023-02-15T08:54:05.540Z,175.43
2023-02-15T08:56:39.288Z,170.50
2023-02-15T08:59:08.130Z,170.27
2023-02-15T09:01:36.242Z,173.87
2023-02-15T09:04:07.378Z,163.10
2023-02-15T09:06:34.931Z,171.73
2023-02-15T09:09:03.176Z,167.20
2023-02-15T09:11:35.214Z,169.67
2023-02-15T09:14:22.506Z,166.93
2023-02-15T09:16:51.991Z,166.63
2023-02-15T09:19:21.885Z,177.20
2023-02-15T09:21:49.817Z,174.43
2023-02-15T09:24:18.499Z,168.27
2023-02-15T09:26:49.338Z,165.30
2023-02-15T09:29:18.458Z,165.93
2023-02-15T09:31:49.934Z,169.20
2023-02-15T09:34:20.788Z,167.03
2023-02-15T09:36:48.961Z,167.30
2023-02-15T09:39:20.361Z,172.67
2023-02-15T09:41:56.035Z,165.67
2023-02-15T09:45:09.816Z,164.10
2023-02-15T09:48:12.369Z,158.93
2023-02-15T09:51:14.288Z,165.57
2023-02-15T09:54:12.270Z,177.33
2023-02-15T09:56:49.910Z,166.03
2023-02-15T09:59:34.796Z,155.57
2023-02-15T10:02:26.090Z,151.77
2023-02-15T10:05:19.921Z,162.33
2023-02-15T10:07:50.140Z,163.70
2023-02-15T10:10:53.598Z,161.30
2023-02-15T10:13:45.431Z,155.93
2023-02-15T10:16:43.047Z,160.07
2023-02-15T10:19:28.737Z,165.97
2023-02-15T10:22:07.612Z,196.23
2023-02-15T10:25:08.193Z,174.77
2023-02-15T10:27:47.277Z,165.17
2023-02-15T10:30:18.060Z,164.03
2023-02-15T10:33:22.822Z,164.03
2023-02-15T10:36:31.435Z,165.87
2023-02-15T10:39:01.567Z,164.10
2023-02-15T10:42:30.579Z,163.00
2023-02-15T10:45:13.819Z,164.57
2023-02-15T10:48:01.183Z,170.77
2023-02-15T10:50:53.968Z,169.50
2023-02-15T10:54:16.329Z,164.17
2023-02-15T10:57:19.268Z,165.30
2023-02-15T11:00:40.152Z,165.23
2023-02-15T11:03:27.870Z,167.80
2023-02-15T11:06:14.378Z,164.73
2023-02-15T11:08:57.557Z,175.53
2023-02-15T11:11:43.462Z,166.30
2023-02-15T11:14:27.867Z,164.20
2023-02-15T11:17:05.322Z,167.90
2023-02-15T11:20:09.393Z,169.43
2023-02-15T11:22:36.918Z,174.40
2023-02-15T11:25:31.539Z,181.70
2023-02-15T11:27:59.859Z,177.83
2023-02-15T11:30:54.805Z,178.47
2023-02-15T11:33:37.717Z,183.97
2023-02-15T11:36:36.273Z,184.90
2023-02-15T11:39:17.181Z,190.27
2023-02-15T11:41:54.874Z,179.33
2023-02-15T11:44:46.813Z,176.67
2023-02-15T11:47:14.965Z,185.67
2023-02-15T11:49:42.005Z,189.20
2023-02-15T11:52:17.440Z,175.80
2023-02-15T11:54:51.066Z,179.37
2023-02-15T11:57:32.896Z,179.97
2023-02-15T12:00:05.154Z,179.57
2023-02-15T12:02:38.716Z,181.17
2023-02-15T12:05:20.057Z,173.67
2023-02-15T12:07:55.912Z,178.70
2023-02-15T12:10:35.901Z,178.80
2023-02-15T12:13:20.281Z,168.97
2023-02-15T12:15:57.208Z,175.77
2023-02-15T12:18:41.392Z,182.70
2023-02-15T12:21:14.396Z,174.53
2023-02-15T12:23:51.695Z,175.43
2023-02-15T12:26:36.208Z,173.10
2023-02-15T12:29:17.426Z,179.60
2023-02-15T12:31:51.577Z,182.57
2023-02-15T12:34:32.032Z,181.20
2023-02-15T12:37:03.850Z,183.50
2023-02-15T12:39:33.199Z,173.87
2023-02-15T12:42:17.349Z,187.37
2023-02-15T12:45:00.431Z,176.70
2023-02-15T12:47:30.407Z,182.17
2023-02-15T12:50:34.668Z,189.17
2023-02-15T12:53:35.562Z,193.90
2023-02-15T12:56:06.201Z,196.63
2023-02-15T12:58:39.326Z,191.43
2023-02-15T13:01:25.471Z,183.97
2023-02-15T13:04:28.701Z,188.47
2023-02-15T13:07:03.806Z,176.23
2023-02-15T13:09:33.804Z,177.90
2023-02-15T13:12:24.820Z,179.10
2023-02-15T13:14:55.699Z,182.07
2023-02-15T13:17:30.565Z,177.03
2023-02-15T13:20:10.450Z,183.30
2023-02-15T13:22:45.626Z,185.13
2023-02-15T13:25:29.495Z,190.13
2023-02-15T13:28:03.134Z,192.40
2023-02-15T13:30:38.164Z,186.47
2023-02-15T13:33:12.043Z,201.17
2023-02-15T13:36:09.623Z,184.90
2023-02-15T13:38:45.929Z,191.40
2023-02-15T13:41:58.523Z,179.40
2023-02-15T13:44:58.474Z,181.00
2023-02-15T13:48:40.185Z,179.90
2023-02-15T13:51:28.252Z,194.03
2023-02-15T13:54:00.327Z,186.50
2023-02-15T13:56:30.509Z,200.83
2023-02-15T13:59:16.729Z,195.40
2023-02-15T14:01:53.990Z,187.60
2023-02-15T14:04:57.508Z,207.03
2023-02-15T14:07:54.383Z,194.40
2023-02-15T14:10:49.768Z,196.13
2023-02-15T14:13:50.490Z,202.77
2023-02-15T14:17:06.564Z,208.80
2023-02-15T14:19:37.506Z,195.10
2023-02-15T14:22:20.833Z,196.10
2023-02-15T14:25:20.014Z,196.07
2023-02-15T14:27:47.034Z,208.20
2023-02-15T14:30:23.972Z,203.37
2023-02-15T14:32:57.141Z,213.43
2023-02-15T14:35:28.951Z,194.30
2023-02-15T14:38:03.058Z,194.07
2023-02-15T14:41:05.044Z,199.00
2023-02-15T14:43:58.651Z,200.97
2023-02-15T14:46:38.944Z,200.67
2023-02-15T14:49:16.932Z,189.10
2023-02-15T14:51:44.350Z,186.23
2023-02-15T14:54:34.149Z,187.13
2023-02-15T14:57:04.178Z,192.63
2023-02-15T14:59:53.885Z,194.73
2023-02-15T15:02:30.538Z,189.23
2023-02-15T15:05:11.970Z,176.40
2023-02-15T15:07:43.945Z,179.37
2023-02-15T15:10:17.216Z,188.27
2023-02-15T15:13:12.320Z,186.80
2023-02-15T15:15:48.681Z,190.23
2023-02-15T15:18:47.617Z,196.67
2023-02-15T15:21:49.915Z,193.63
2023-02-15T15:24:38.655Z,190.33
2023-02-15T15:27:52.922Z,191.07
2023-02-15T15:30:20.472Z,189.47
2023-02-15T15:32:58.511Z,197.37
2023-02-15T15:36:18.531Z,192.67
2023-02-15T15:39:26.877Z,191.77
2023-02-15T15:41:57.101Z,189.87
2023-02-15T15:44:50.886Z,195.80
2023-02-15T15:47:21.068Z,190.53
2023-02-15T15:49:48.683Z,188.50
2023-02-15T15:52:21.948Z,186.87
2023-02-15T15:54:59.273Z,173.17
2023-02-15T15:57:42.796Z,188.67
2023-02-15T16:00:49.013Z,202.07
2023-02-15T16:03:36.621Z,188.97
2023-02-15T16:06:04.512Z,183.23
2023-02-15T16:08:40.066Z,193.53
2023-02-15T16:11:23.793Z,192.13
2023-02-15T16:13:51.608Z,184.70
2023-02-15T16:16:30.076Z,190.17
2023-02-15T16:19:01.399Z,185.73
2023-02-15T16:21:33.074Z,189.33
2023-02-15T16:24:28.328Z,189.47
2023-02-15T16:27:44.718Z,203.70
2023-02-15T16:30:31.791Z,190.93
2023-02-15T16:33:07.746Z,192.77
2023-02-15T16:35:40.414Z,193.63
2023-02-15T16:38:11.703Z,205.27
2023-02-15T16:40:55.041Z,190.90
2023-02-15T16:43:27.437Z,197.40
2023-02-15T16:46:13.412Z,196.60
2023-02-15T16:48:47.087Z,196.73
2023-02-15T16:51:26.876Z,193.63
2023-02-15T16:53:57.036Z,199.57
2023-02-15T16:56:28.285Z,199.20
2023-02-15T16:58:58.800Z,199.77
2023-02-15T17:01:32.074Z,196.03
2023-02-15T17:04:21.903Z,190.37
2023-02-15T17:07:17.942Z,196.03
2023-02-15T17:09:56.951Z,196.57
2023-02-15T17:12:57.258Z,186.63
2023-02-15T17:15:37.157Z,190.50
2023-02-15T17:18:14.090Z,187.73
2023-02-15T17:20:43.892Z,177.40
2023-02-15T17:23:44.058Z,177.33
2023-02-15T17:26:22.600Z,174.27
2023-02-15T17:28:59.522Z,174.17
2023-02-15T17:31:33.237Z,182.27
2023-02-15T17:34:02.102Z,185.13
2023-02-15T17:36:31.852Z,194.07
2023-02-15T17:38:58.855Z,180.87
2023-02-15T17:41:28.662Z,187.00
2023-02-15T17:43:56.085Z,188.70
2023-02-15T17:46:23.910Z,191.90
2023-02-15T17:48:54.828Z,188.93
2023-02-15T17:51:23.667Z,191.23
2023-02-15T17:54:10.177Z,189.17
2023-02-15T17:56:39.242Z,201.50
2023-02-15T17:59:11.319Z,192.17
2023-02-15T18:02:06.796Z,185.53
2023-02-15T18:04:55.727Z,193.03
2023-02-15T18:07:41.536Z,205.50
2023-02-15T18:10:38.402Z,184.10
2023-02-15T18:13:05.869Z,202.17
2023-02-15T18:15:33.378Z,193.03
2023-02-15T18:18:00.852Z,189.23
2023-02-15T18:20:38.907Z,199.53
2023-02-15T18:23:09.205Z,209.00
2023-02-15T18:25:36.644Z,206.33
2023-02-15T18:28:04.229Z,193.83
2023-02-15T18:30:32.152Z,213.20
2023-02-15T18:32:59.963Z,191.27
2023-02-15T18:35:31.439Z,197.87
2023-02-15T18:38:01.039Z,183.60
2023-02-15T18:40:29.814Z,199.87
2023-02-15T18:42:57.531Z,193.97
2023-02-15T18:45:35.901Z,186.53
2023-02-15T18:48:03.676Z,186.23
2023-02-15T18:50:35.055Z,192.63
2023-02-15T18:53:04.540Z,190.00
2023-02-15T18:55:33.063Z,204.10
2023-02-15T18:58:01.126Z,184.67
2023-02-15T19:00:33.122Z,189.47
2023-02-15T19:03:04.909Z,196.27
2023-02-15T19:05:33.735Z,184.70
2023-02-15T19:08:02.112Z,191.13
2023-02-15T19:10:32.042Z,194.93
2023-02-15T19:12:59.833Z,199.93
2023-02-15T19:15:30.548Z,195.13
2023-02-15T19:17:57.756Z,194.70
2023-02-15T19:20:36.817Z,192.77
2023-02-15T19:23:06.002Z,192.20
2023-02-15T19:25:38.078Z,190.17
2023-02-15T19:28:16.454Z,189.27
2023-02-15T19:30:44.249Z,196.50
2023-02-15T19:33:19.029Z,184.07
2023-02-15T19:35:52.499Z,188.97
2023-02-15T19:38:25.859Z,204.80
2023-02-15T19:40:53.351Z,193.20
2023-02-15T19:43:26.036Z,186.23
2023-02-15T19:45:53.961Z,193.23
2023-02-15T19:48:21.407Z,195.63
2023-02-15T19:50:48.960Z,196.53
2023-02-15T19:53:25.181Z,187.17
2023-02-15T19:55:53.047Z,198.40
2023-02-15T19:58:21.173Z,194.63
2023-02-15T20:00:50.635Z,201.47
2023-02-15T20:03:17.835Z,193.37
2023-02-15T20:05:45.722Z,203.87
2023-02-15T20:08:22.314Z,186.37
2023-02-15T20:10:49.953Z,203.47
2023-02-15T20:13:19.687Z,199.20
2023-02-15T20:15:48.053Z,200.33
2023-02-15T20:18:15.585Z,201.10
2023-02-15T20:20:48.637Z,204.17
2023-02-15T20:23:35.699Z,200.63
2023-02-15T20:26:18.323Z,200.97
2023-02-15T20:28:46.820Z,208.40
2023-02-15T20:31:20.394Z,209.13
2023-02-15T20:33:49.031Z,201.97
2023-02-15T20:36:19.025Z,208.03
2023-02-15T20:38:47.010Z,215.57
2023-02-15T20:41:35.894Z,212.27
2023-02-15T20:44:24.526Z,216.80
2023-02-15T20:46:56.114Z,218.50
2023-02-15T20:49:25.401Z,207.20
2023-02-15T20:51:54.978Z,207.50
2023-02-15T20:54:25.676Z,212.67
2023-02-15T20:56:54.464Z,230.30
2023-02-15T20:59:30.583Z,222.23
2023-02-15T21:02:04.795Z,242.43
2023-02-15T21:04:33.680Z,235.83
2023-02-15T21:07:01.402Z,247.87
2023-02-15T21:09:29.030Z,250.80
2023-02-15T21:11:59.573Z,280.00
2023-02-15T21:14:28.505Z,255.67
2023-02-15T21:16:55.964Z,265.03
2023-02-15T21:19:24.697Z,258.90
2023-02-15T21:21:53.406Z,262.70
2023-02-15T21:24:27.703Z,256.77
2023-02-15T21:26:58.779Z,246.90
2023-02-15T21:29:28.492Z,245.07
2023-02-15T21:31:58.535Z,325.43
2023-02-15T21:34:26.244Z,236.70
2023-02-15T21:36:53.748Z,236.17
2023-02-15T21:39:29.807Z,237.13
2023-02-15T21:42:16.024Z,234.00
2023-02-15T21:45:01.981Z,213.03
2023-02-15T21:47:50.210Z,235.87
2023-02-15T21:50:42.332Z,233.37
2023-02-15T21:53:34.807Z,229.70
2023-02-15T21:56:05.805Z,234.70
2023-02-15T21:58:36.869Z,231.97
2023-02-15T22:01:04.824Z,227.60
2023-02-15T22:03:37.953Z,228.20
2023-02-15T22:06:05.665Z,226.17
2023-02-15T22:08:33.447Z,216.37
2023-02-15T22:11:01.004Z,226.80
2023-02-15T22:13:33.936Z,223.53
2023-02-15T22:16:02.053Z,213.20
2023-02-15T22:18:33.944Z,222.93
2023-02-15T22:21:03.878Z,207.27
2023-02-15T22:23:31.788Z,213.73
2023-02-15T22:26:07.577Z,218.57
2023-02-15T22:28:40.551Z,222.57
2023-02-15T22:31:15.123Z,196.37
2023-02-15T22:33:44.805Z,201.80
2023-02-15T22:36:30.564Z,196.57
2023-02-15T22:38:58.495Z,203.30
2023-02-15T22:41:30.321Z,210.27
2023-02-15T22:43:58.035Z,217.10
2023-02-15T22:46:25.860Z,209.27
2023-02-15T22:48:53.363Z,210.27
2023-02-15T22:51:24.351Z,208.30
2023-02-15T22:53:53.311Z,211.10
2023-02-15T22:56:30.280Z,218.03
2023-02-15T22:59:02.469Z,202.00
2023-02-15T23:01:35.688Z,202.43
2023-02-15T23:04:04.234Z,205.83
2023-02-15T23:06:32.534Z,201.20
2023-02-15T23:09:00.856Z,215.43
2023-02-15T23:11:28.651Z,208.63
2023-02-15T23:13:56.142Z,201.60
2023-02-15T23:16:23.717Z,205.03
2023-02-15T23:18:51.349Z,203.73
2023-02-15T23:21:22.836Z,206.20
2023-02-15T23:23:57.955Z,205.00
2023-02-15T23:26:29.664Z,206.23
2023-02-15T23:28:59.770Z,201.70
2023-02-15T23:31:34.724Z,196.77
2023-02-15T23:34:12.453Z,202.70
2023-02-15T23:36:40.013Z,209.13
2023-02-15T23:39:45.464Z,198.33
2023-02-15T23:42:30.986Z,200.33
2023-02-15T23:44:58.766Z,196.90
2023-02-15T23:47:54.905Z,205.70
2023-02-15T23:50:26.600Z,203.87
2023-02-15T23:52:55.107Z,204.03
2023-02-15T23:55:23.356Z,211.93
2023-02-15T23:57:50.904Z,202.93
